sensor_id;sensor_type;location;lat;lon;timestamp;temperature;humidity
38788;DHT22;24536;45.488;12.238;2023-05-10T00:01:38;19.60;69.00
38788;DHT22;24536;45.488;12.238;2023-05-10T00:04:03;19.50;68.20
38788;DHT22;24536;45.488;12.238;2023-05-10T00:06:29;19.50;67.90
38788;DHT22;24536;45.488;12.238;2023-05-10T00:08:55;19.50;69.20
38788;DHT22;24536;45.488;12.238;2023-05-10T00:11:21;19.40;67.40
38788;DHT22;24536;45.488;12.238;2023-05-10T00:13:47;19.40;68.20
38788;DHT22;24536;45.488;12.238;2023-05-10T00:16:13;19.40;68.10
38788;DHT22;24536;45.488;12.238;2023-05-10T00:18:39;19.40;68.00
38788;DHT22;24536;45.488;12.238;2023-05-10T00:21:05;19.30;67.40
38788;DHT22;24536;45.488;12.238;2023-05-10T00:23:31;19.30;67.90
38788;DHT22;24536;45.488;12.238;2023-05-10T00:25:56;19.20;67.90
38788;DHT22;24536;45.488;12.238;2023-05-10T00:28:22;19.30;68.30
38788;DHT22;24536;45.488;12.238;2023-05-10T00:30:48;19.30;68.10
38788;DHT22;24536;45.488;12.238;2023-05-10T00:33:13;19.30;68.00
38788;DHT22;24536;45.488;12.238;2023-05-10T00:35:39;19.30;67.80
38788;DHT22;24536;45.488;12.238;2023-05-10T00:38:06;19.30;67.50
38788;DHT22;24536;45.488;12.238;2023-05-10T00:40:31;19.30;67.60
38788;DHT22;24536;45.488;12.238;2023-05-10T00:42:57;19.30;67.20
38788;DHT22;24536;45.488;12.238;2023-05-10T00:45:23;19.30;66.70
38788;DHT22;24536;45.488;12.238;2023-05-10T00:47:51;19.30;66.30
38788;DHT22;24536;45.488;12.238;2023-05-10T00:50:21;19.30;66.50
38788;DHT22;24536;45.488;12.238;2023-05-10T00:52:47;19.30;66.40
38788;DHT22;24536;45.488;12.238;2023-05-10T00:55:12;19.30;66.30
38788;DHT22;24536;45.488;12.238;2023-05-10T00:57:38;19.30;66.30
38788;DHT22;24536;45.488;12.238;2023-05-10T01:00:05;19.30;66.30
38788;DHT22;24536;45.488;12.238;2023-05-10T01:02:32;19.30;66.50
38788;DHT22;24536;45.488;12.238;2023-05-10T01:04:59;19.30;66.80
38788;DHT22;24536;45.488;12.238;2023-05-10T01:07:25;19.30;66.30
38788;DHT22;24536;45.488;12.238;2023-05-10T01:09:51;19.30;66.30
38788;DHT22;24536;45.488;12.238;2023-05-10T01:12:17;19.30;65.70
38788;DHT22;24536;45.488;12.238;2023-05-10T01:14:42;19.20;65.70
38788;DHT22;24536;45.488;12.238;2023-05-10T01:17:10;19.20;65.90
38788;DHT22;24536;45.488;12.238;2023-05-10T01:19:37;19.20;65.80
38788;DHT22;24536;45.488;12.238;2023-05-10T01:33:11;19.10;64.50
38788;DHT22;24536;45.488;12.238;2023-05-10T01:41:17;19.10;63.80
38788;DHT22;24536;45.488;12.238;2023-05-10T01:43:57;19.10;62.90
38788;DHT22;24536;45.488;12.238;2023-05-10T01:46:28;19.10;62.90
38788;DHT22;24536;45.488;12.238;2023-05-10T01:48:58;19.00;63.40
38788;DHT22;24536;45.488;12.238;2023-05-10T01:51:29;19.10;63.60
38788;DHT22;24536;45.488;12.238;2023-05-10T01:54:02;19.10;64.00
38788;DHT22;24536;45.488;12.238;2023-05-10T01:56:30;19.10;63.90
38788;DHT22;24536;45.488;12.238;2023-05-10T01:58:58;19.10;64.60
38788;DHT22;24536;45.488;12.238;2023-05-10T02:01:26;19.10;65.90
38788;DHT22;24536;45.488;12.238;2023-05-10T02:03:53;19.00;65.90
38788;DHT22;24536;45.488;12.238;2023-05-10T02:06:22;18.90;66.20
38788;DHT22;24536;45.488;12.238;2023-05-10T02:08:50;18.90;66.50
38788;DHT22;24536;45.488;12.238;2023-05-10T02:11:17;18.90;66.90
38788;DHT22;24536;45.488;12.238;2023-05-10T02:13:44;18.80;67.20
38788;DHT22;24536;45.488;12.238;2023-05-10T02:16:13;18.80;67.60
38788;DHT22;24536;45.488;12.238;2023-05-10T02:18:41;18.80;68.80
38788;DHT22;24536;45.488;12.238;2023-05-10T02:21:08;18.70;68.40
38788;DHT22;24536;45.488;12.238;2023-05-10T02:23:34;18.70;68.60
38788;DHT22;24536;45.488;12.238;2023-05-10T02:26:01;18.70;68.90
38788;DHT22;24536;45.488;12.238;2023-05-10T02:28:28;18.70;69.30
38788;DHT22;24536;45.488;12.238;2023-05-10T02:30:55;18.70;69.20
38788;DHT22;24536;45.488;12.238;2023-05-10T02:33:22;18.70;69.30
38788;DHT22;24536;45.488;12.238;2023-05-10T02:35:48;18.60;69.30
38788;DHT22;24536;45.488;12.238;2023-05-10T02:38:15;18.60;69.60
38788;DHT22;24536;45.488;12.238;2023-05-10T02:40:42;18.50;69.60
38788;DHT22;24536;45.488;12.238;2023-05-10T02:43:12;18.50;69.50
38788;DHT22;24536;45.488;12.238;2023-05-10T02:45:40;18.50;70.00
38788;DHT22;24536;45.488;12.238;2023-05-10T02:48:07;18.50;70.30
38788;DHT22;24536;45.488;12.238;2023-05-10T02:50:33;18.50;70.10
38788;DHT22;24536;45.488;12.238;2023-05-10T02:53:02;18.50;70.30
38788;DHT22;24536;45.488;12.238;2023-05-10T02:55:35;18.50;70.50
38788;DHT22;24536;45.488;12.238;2023-05-10T02:58:02;18.50;69.90
38788;DHT22;24536;45.488;12.238;2023-05-10T03:00:28;18.40;70.30
38788;DHT22;24536;45.488;12.238;2023-05-10T03:02:54;18.40;70.00
38788;DHT22;24536;45.488;12.238;2023-05-10T03:05:20;18.40;70.40
38788;DHT22;24536;45.488;12.238;2023-05-10T03:07:47;18.40;70.10
38788;DHT22;24536;45.488;12.238;2023-05-10T03:10:13;18.40;70.50
38788;DHT22;24536;45.488;12.238;2023-05-10T03:15:16;18.40;71.30
38788;DHT22;24536;45.488;12.238;2023-05-10T03:17:55;18.40;71.00
38788;DHT22;24536;45.488;12.238;2023-05-10T03:20:29;18.40;71.30
38788;DHT22;24536;45.488;12.238;2023-05-10T03:23:03;18.30;71.20
38788;DHT22;24536;45.488;12.238;2023-05-10T03:25:31;18.30;71.20
38788;DHT22;24536;45.488;12.238;2023-05-10T03:27:57;18.20;71.50
38788;DHT22;24536;45.488;12.238;2023-05-10T03:30:24;18.20;72.00
38788;DHT22;24536;45.488;12.238;2023-05-10T03:32:50;18.20;71.30
38788;DHT22;24536;45.488;12.238;2023-05-10T03:35:16;18.20;71.60
38788;DHT22;24536;45.488;12.238;2023-05-10T03:37:41;18.10;72.10
38788;DHT22;24536;45.488;12.238;2023-05-10T03:40:09;18.20;72.00
38788;DHT22;24536;45.488;12.238;2023-05-10T03:42:35;18.10;71.90
38788;DHT22;24536;45.488;12.238;2023-05-10T03:45:01;18.20;72.40
38788;DHT22;24536;45.488;12.238;2023-05-10T03:47:27;18.10;72.40
38788;DHT22;24536;45.488;12.238;2023-05-10T03:49:52;18.10;73.40
38788;DHT22;24536;45.488;12.238;2023-05-10T03:52:18;18.10;73.60
38788;DHT22;24536;45.488;12.238;2023-05-10T03:54:44;18.10;74.30
38788;DHT22;24536;45.488;12.238;2023-05-10T03:57:09;18.10;73.50
38788;DHT22;24536;45.488;12.238;2023-05-10T03:59:35;18.00;73.90
38788;DHT22;24536;45.488;12.238;2023-05-10T04:02:01;18.00;74.00
38788;DHT22;24536;45.488;12.238;2023-05-10T04:04:26;18.00;74.50
38788;DHT22;24536;45.488;12.238;2023-05-10T04:06:52;18.00;75.20
38788;DHT22;24536;45.488;12.238;2023-05-10T04:09:18;18.00;75.60
38788;DHT22;24536;45.488;12.238;2023-05-10T04:11:43;18.00;74.70
38788;DHT22;24536;45.488;12.238;2023-05-10T04:14:09;18.00;74.90
38788;DHT22;24536;45.488;12.238;2023-05-10T04:16:35;18.00;74.50
38788;DHT22;24536;45.488;12.238;2023-05-10T04:19:01;18.00;74.30
38788;DHT22;24536;45.488;12.238;2023-05-10T04:21:26;18.00;73.80
38788;DHT22;24536;45.488;12.238;2023-05-10T04:23:52;18.00;74.10
38788;DHT22;24536;45.488;12.238;2023-05-10T04:26:18;17.90;74.00
38788;DHT22;24536;45.488;12.238;2023-05-10T04:28:43;17.90;74.00
38788;DHT22;24536;45.488;12.238;2023-05-10T04:31:09;18.00;74.10
38788;DHT22;24536;45.488;12.238;2023-05-10T04:33:36;17.90;74.30
38788;DHT22;24536;45.488;12.238;2023-05-10T04:36:02;17.90;74.20
38788;DHT22;24536;45.488;12.238;2023-05-10T04:38:28;17.80;74.10
38788;DHT22;24536;45.488;12.238;2023-05-10T04:40:54;17.80;74.50
38788;DHT22;24536;45.488;12.238;2023-05-10T04:43:20;17.80;74.80
38788;DHT22;24536;45.488;12.238;2023-05-10T04:45:46;17.80;74.50
38788;DHT22;24536;45.488;12.238;2023-05-10T04:48:12;17.80;75.20
38788;DHT22;24536;45.488;12.238;2023-05-10T04:50:38;17.90;76.10
38788;DHT22;24536;45.488;12.238;2023-05-10T04:53:04;17.80;75.60
38788;DHT22;24536;45.488;12.238;2023-05-10T04:55:30;17.80;75.70
38788;DHT22;24536;45.488;12.238;2023-05-10T04:57:56;17.80;75.40
38788;DHT22;24536;45.488;12.238;2023-05-10T05:00:22;17.80;75.30
38788;DHT22;24536;45.488;12.238;2023-05-10T05:02:48;17.80;75.60
38788;DHT22;24536;45.488;12.238;2023-05-10T05:05:14;17.80;75.20
38788;DHT22;24536;45.488;12.238;2023-05-10T05:07:40;17.70;75.40
38788;DHT22;24536;45.488;12.238;2023-05-10T05:10:07;17.70;75.40
38788;DHT22;24536;45.488;12.238;2023-05-10T05:12:36;17.70;75.00
38788;DHT22;24536;45.488;12.238;2023-05-10T05:15:08;17.70;75.40
38788;DHT22;24536;45.488;12.238;2023-05-10T05:17:35;17.60;75.20
38788;DHT22;24536;45.488;12.238;2023-05-10T05:20:01;17.70;76.70
38788;DHT22;24536;45.488;12.238;2023-05-10T05:22:27;17.70;77.80
38788;DHT22;24536;45.488;12.238;2023-05-10T05:24:57;17.80;78.20
38788;DHT22;24536;45.488;12.238;2023-05-10T05:27:24;17.80;77.50
38788;DHT22;24536;45.488;12.238;2023-05-10T05:29:57;17.80;77.10
38788;DHT22;24536;45.488;12.238;2023-05-10T05:32:24;17.80;76.70
38788;DHT22;24536;45.488;12.238;2023-05-10T05:34:50;17.80;77.40
38788;DHT22;24536;45.488;12.238;2023-05-10T05:37:18;17.80;78.00
38788;DHT22;24536;45.488;12.238;2023-05-10T05:39:44;17.80;77.80
38788;DHT22;24536;45.488;12.238;2023-05-10T05:42:11;17.90;78.00
38788;DHT22;24536;45.488;12.238;2023-05-10T05:44:37;17.90;78.40
38788;DHT22;24536;45.488;12.238;2023-05-10T05:47:04;17.90;78.80
38788;DHT22;24536;45.488;12.238;2023-05-10T05:49:30;17.90;78.70
38788;DHT22;24536;45.488;12.238;2023-05-10T05:52:00;17.90;78.30
38788;DHT22;24536;45.488;12.238;2023-05-10T05:54:26;17.80;78.30
38788;DHT22;24536;45.488;12.238;2023-05-10T05:56:56;17.80;79.00
38788;DHT22;24536;45.488;12.238;2023-05-10T05:59:22;17.80;79.10
38788;DHT22;24536;45.488;12.238;2023-05-10T06:01:48;17.90;79.50
38788;DHT22;24536;45.488;12.238;2023-05-10T06:04:14;17.90;78.80
38788;DHT22;24536;45.488;12.238;2023-05-10T06:06:40;17.90;78.50
38788;DHT22;24536;45.488;12.238;2023-05-10T06:09:06;17.90;77.80
38788;DHT22;24536;45.488;12.238;2023-05-10T06:11:31;17.80;77.30
38788;DHT22;24536;45.488;12.238;2023-05-10T06:13:58;17.80;77.70
38788;DHT22;24536;45.488;12.238;2023-05-10T06:16:24;17.80;78.50
38788;DHT22;24536;45.488;12.238;2023-05-10T06:18:50;17.80;78.20
38788;DHT22;24536;45.488;12.238;2023-05-10T06:21:16;17.80;78.50
38788;DHT22;24536;45.488;12.238;2023-05-10T06:23:42;17.80;79.30
38788;DHT22;24536;45.488;12.238;2023-05-10T06:26:07;17.80;79.60
38788;DHT22;24536;45.488;12.238;2023-05-10T06:28:33;17.80;79.70
38788;DHT22;24536;45.488;12.238;2023-05-10T06:30:59;17.80;79.70
38788;DHT22;24536;45.488;12.238;2023-05-10T06:33:25;17.80;81.10
38788;DHT22;24536;45.488;12.238;2023-05-10T06:35:51;17.80;81.10
38788;DHT22;24536;45.488;12.238;2023-05-10T06:38:17;17.80;81.30
38788;DHT22;24536;45.488;12.238;2023-05-10T06:40:43;17.80;80.50
38788;DHT22;24536;45.488;12.238;2023-05-10T06:43:09;17.80;80.10
38788;DHT22;24536;45.488;12.238;2023-05-10T06:45:35;17.70;79.70
38788;DHT22;24536;45.488;12.238;2023-05-10T06:48:01;17.70;80.20
38788;DHT22;24536;45.488;12.238;2023-05-10T06:50:26;17.70;80.20
38788;DHT22;24536;45.488;12.238;2023-05-10T06:52:52;17.70;81.00
38788;DHT22;24536;45.488;12.238;2023-05-10T06:55:18;17.70;81.40
38788;DHT22;24536;45.488;12.238;2023-05-10T06:57:43;17.70;81.10
38788;DHT22;24536;45.488;12.238;2023-05-10T07:00:09;17.80;81.60
38788;DHT22;24536;45.488;12.238;2023-05-10T07:02:36;17.80;82.70
38788;DHT22;24536;45.488;12.238;2023-05-10T07:05:01;17.80;82.70
38788;DHT22;24536;45.488;12.238;2023-05-10T07:07:27;17.80;83.10
38788;DHT22;24536;45.488;12.238;2023-05-10T07:09:54;17.80;82.90
38788;DHT22;24536;45.488;12.238;2023-05-10T07:12:20;17.80;82.70
38788;DHT22;24536;45.488;12.238;2023-05-10T07:14:45;17.80;83.00
38788;DHT22;24536;45.488;12.238;2023-05-10T07:17:12;17.80;82.50
38788;DHT22;24536;45.488;12.238;2023-05-10T07:19:37;17.70;82.60
38788;DHT22;24536;45.488;12.238;2023-05-10T07:22:03;17.60;82.70
38788;DHT22;24536;45.488;12.238;2023-05-10T07:24:29;17.60;82.70
38788;DHT22;24536;45.488;12.238;2023-05-10T07:26:55;17.60;82.70
38788;DHT22;24536;45.488;12.238;2023-05-10T07:29:20;17.60;83.70
38788;DHT22;24536;45.488;12.238;2023-05-10T07:31:46;17.60;84.20
38788;DHT22;24536;45.488;12.238;2023-05-10T07:34:12;17.60;84.70
38788;DHT22;24536;45.488;12.238;2023-05-10T07:36:37;17.60;84.20
38788;DHT22;24536;45.488;12.238;2023-05-10T07:39:03;17.60;83.90
38788;DHT22;24536;45.488;12.238;2023-05-10T07:41:30;17.60;83.90
38788;DHT22;24536;45.488;12.238;2023-05-10T07:43:55;17.60;84.50
38788;DHT22;24536;45.488;12.238;2023-05-10T07:46:21;17.50;84.40
38788;DHT22;24536;45.488;12.238;2023-05-10T07:48:47;17.50;84.50
38788;DHT22;24536;45.488;12.238;2023-05-10T07:51:12;17.50;85.20
38788;DHT22;24536;45.488;12.238;2023-05-10T07:53:38;17.50;85.90
38788;DHT22;24536;45.488;12.238;2023-05-10T07:56:25;17.50;85.50
38788;DHT22;24536;45.488;12.238;2023-05-10T07:58:52;17.50;85.70
38788;DHT22;24536;45.488;12.238;2023-05-10T08:01:19;17.50;85.60
38788;DHT22;24536;45.488;12.238;2023-05-10T08:03:45;17.40;86.00
38788;DHT22;24536;45.488;12.238;2023-05-10T08:06:10;17.40;86.10
38788;DHT22;24536;45.488;12.238;2023-05-10T08:08:36;17.40;86.50
38788;DHT22;24536;45.488;12.238;2023-05-10T08:11:03;17.40;86.50
38788;DHT22;24536;45.488;12.238;2023-05-10T08:13:28;17.40;86.40
38788;DHT22;24536;45.488;12.238;2023-05-10T08:15:54;17.30;86.70
38788;DHT22;24536;45.488;12.238;2023-05-10T08:18:20;17.30;86.60
38788;DHT22;24536;45.488;12.238;2023-05-10T08:20:46;17.30;86.90
38788;DHT22;24536;45.488;12.238;2023-05-10T08:23:15;17.30;87.00
38788;DHT22;24536;45.488;12.238;2023-05-10T08:25:41;17.30;86.90
38788;DHT22;24536;45.488;12.238;2023-05-10T08:28:06;17.30;87.30
38788;DHT22;24536;45.488;12.238;2023-05-10T08:30:32;17.30;87.70
38788;DHT22;24536;45.488;12.238;2023-05-10T08:32:58;17.30;87.70
38788;DHT22;24536;45.488;12.238;2023-05-10T08:35:23;17.30;87.80
38788;DHT22;24536;45.488;12.238;2023-05-10T08:37:50;17.30;87.80
38788;DHT22;24536;45.488;12.238;2023-05-10T08:40:19;17.30;88.30
38788;DHT22;24536;45.488;12.238;2023-05-10T08:42:55;17.20;88.30
38788;DHT22;24536;45.488;12.238;2023-05-10T08:45:24;17.30;88.40
38788;DHT22;24536;45.488;12.238;2023-05-10T08:47:52;17.20;88.70
38788;DHT22;24536;45.488;12.238;2023-05-10T08:50:20;17.30;88.80
38788;DHT22;24536;45.488;12.238;2023-05-10T08:52:48;17.30;88.90
38788;DHT22;24536;45.488;12.238;2023-05-10T08:55:16;17.30;89.00
38788;DHT22;24536;45.488;12.238;2023-05-10T08:57:42;17.30;89.40
38788;DHT22;24536;45.488;12.238;2023-05-10T09:00:08;17.30;89.80
38788;DHT22;24536;45.488;12.238;2023-05-10T09:02:35;17.30;89.50
38788;DHT22;24536;45.488;12.238;2023-05-10T09:05:02;17.30;89.60
38788;DHT22;24536;45.488;12.238;2023-05-10T09:07:30;17.30;89.60
38788;DHT22;24536;45.488;12.238;2023-05-10T09:09:56;17.30;89.70
38788;DHT22;24536;45.488;12.238;2023-05-10T09:12:23;17.30;89.50
38788;DHT22;24536;45.488;12.238;2023-05-10T09:14:50;17.20;89.70
38788;DHT22;24536;45.488;12.238;2023-05-10T09:17:17;17.20;90.00
38788;DHT22;24536;45.488;12.238;2023-05-10T09:19:42;17.20;90.00
38788;DHT22;24536;45.488;12.238;2023-05-10T09:22:10;17.20;90.10
38788;DHT22;24536;45.488;12.238;2023-05-10T09:24:35;17.20;90.30
38788;DHT22;24536;45.488;12.238;2023-05-10T09:27:02;17.20;90.40
38788;DHT22;24536;45.488;12.238;2023-05-10T09:29:39;17.20;90.20
38788;DHT22;24536;45.488;12.238;2023-05-10T09:32:05;17.20;90.30
38788;DHT22;24536;45.488;12.238;2023-05-10T09:34:32;17.20;90.20
38788;DHT22;24536;45.488;12.238;2023-05-10T09:37:01;17.30;90.30
38788;DHT22;24536;45.488;12.238;2023-05-10T09:39:32;17.30;90.30
38788;DHT22;24536;45.488;12.238;2023-05-10T09:41:59;17.30;90.30
38788;DHT22;24536;45.488;12.238;2023-05-10T09:44:26;17.30;90.40
38788;DHT22;24536;45.488;12.238;2023-05-10T09:46:52;17.30;90.70
38788;DHT22;24536;45.488;12.238;2023-05-10T09:49:19;17.30;90.60
38788;DHT22;24536;45.488;12.238;2023-05-10T09:51:45;17.30;90.60
38788;DHT22;24536;45.488;12.238;2023-05-10T09:54:12;17.30;90.80
38788;DHT22;24536;45.488;12.238;2023-05-10T09:56:38;17.30;91.00
38788;DHT22;24536;45.488;12.238;2023-05-10T09:59:07;17.40;91.00
38788;DHT22;24536;45.488;12.238;2023-05-10T10:01:33;17.40;90.90
38788;DHT22;24536;45.488;12.238;2023-05-10T10:04:09;17.40;91.00
38788;DHT22;24536;45.488;12.238;2023-05-10T10:06:39;17.40;91.20
38788;DHT22;24536;45.488;12.238;2023-05-10T10:09:09;17.40;91.30
38788;DHT22;24536;45.488;12.238;2023-05-10T10:11:38;17.40;91.10
38788;DHT22;24536;45.488;12.238;2023-05-10T10:14:05;17.50;91.20
38788;DHT22;24536;45.488;12.238;2023-05-10T10:16:32;17.50;91.30
38788;DHT22;24536;45.488;12.238;2023-05-10T10:18:58;17.50;91.30
38788;DHT22;24536;45.488;12.238;2023-05-10T10:21:24;17.50;91.40
38788;DHT22;24536;45.488;12.238;2023-05-10T10:23:50;17.50;91.30
38788;DHT22;24536;45.488;12.238;2023-05-10T10:26:17;17.50;91.40
38788;DHT22;24536;45.488;12.238;2023-05-10T10:31:40;17.40;91.40
38788;DHT22;24536;45.488;12.238;2023-05-10T10:34:09;17.40;91.40
38788;DHT22;24536;45.488;12.238;2023-05-10T10:36:46;17.40;91.30
38788;DHT22;24536;45.488;12.238;2023-05-10T10:39:12;17.50;91.30
38788;DHT22;24536;45.488;12.238;2023-05-10T10:41:40;17.50;91.30
38788;DHT22;24536;45.488;12.238;2023-05-10T10:54:41;17.30;91.70
38788;DHT22;24536;45.488;12.238;2023-05-10T10:57:11;17.20;91.70
38788;DHT22;24536;45.488;12.238;2023-05-10T10:59:42;17.20;91.70
38788;DHT22;24536;45.488;12.238;2023-05-10T11:02:34;17.20;91.80
38788;DHT22;24536;45.488;12.238;2023-05-10T11:05:23;17.20;91.80
38788;DHT22;24536;45.488;12.238;2023-05-10T11:07:57;17.20;91.90
38788;DHT22;24536;45.488;12.238;2023-05-10T11:10:24;17.20;91.90
38788;DHT22;24536;45.488;12.238;2023-05-10T11:13:00;17.30;92.10
38788;DHT22;24536;45.488;12.238;2023-05-10T11:15:32;17.30;92.10
38788;DHT22;24536;45.488;12.238;2023-05-10T11:17:59;17.30;92.00
38788;DHT22;24536;45.488;12.238;2023-05-10T11:20:28;17.30;92.20
38788;DHT22;24536;45.488;12.238;2023-05-10T11:23:11;17.30;92.30
38788;DHT22;24536;45.488;12.238;2023-05-10T11:25:45;17.30;92.20
38788;DHT22;24536;45.488;12.238;2023-05-10T11:28:11;17.30;92.10
38788;DHT22;24536;45.488;12.238;2023-05-10T11:30:41;17.30;92.10
38788;DHT22;24536;45.488;12.238;2023-05-10T11:33:09;17.30;92.10
38788;DHT22;24536;45.488;12.238;2023-05-10T11:35:39;17.30;92.20
38788;DHT22;24536;45.488;12.238;2023-05-10T11:38:08;17.30;92.30
38788;DHT22;24536;45.488;12.238;2023-05-10T11:40:35;17.20;92.30
38788;DHT22;24536;45.488;12.238;2023-05-10T11:43:01;17.20;92.40
38788;DHT22;24536;45.488;12.238;2023-05-10T11:45:28;17.20;92.50
38788;DHT22;24536;45.488;12.238;2023-05-10T11:47:58;17.20;92.50
38788;DHT22;24536;45.488;12.238;2023-05-10T11:50:24;17.20;92.70
38788;DHT22;24536;45.488;12.238;2023-05-10T11:52:54;17.20;92.60
38788;DHT22;24536;45.488;12.238;2023-05-10T11:55:20;17.30;92.60
38788;DHT22;24536;45.488;12.238;2023-05-10T11:57:45;17.30;92.50
38788;DHT22;24536;45.488;12.238;2023-05-10T12:00:14;17.30;92.60
38788;DHT22;24536;45.488;12.238;2023-05-10T12:02:40;17.30;92.70
38788;DHT22;24536;45.488;12.238;2023-05-10T12:05:07;17.30;92.70
38788;DHT22;24536;45.488;12.238;2023-05-10T12:07:32;17.30;92.80
38788;DHT22;24536;45.488;12.238;2023-05-10T12:10:17;17.30;92.80
38788;DHT22;24536;45.488;12.238;2023-05-10T12:12:52;17.30;92.80
38788;DHT22;24536;45.488;12.238;2023-05-10T12:15:23;17.30;92.80
38788;DHT22;24536;45.488;12.238;2023-05-10T12:17:50;17.40;92.80
38788;DHT22;24536;45.488;12.238;2023-05-10T12:20:18;17.40;92.80
38788;DHT22;24536;45.488;12.238;2023-05-10T12:22:53;17.30;92.70
38788;DHT22;24536;45.488;12.238;2023-05-10T12:25:20;17.30;92.80
38788;DHT22;24536;45.488;12.238;2023-05-10T12:27:55;17.30;92.80
38788;DHT22;24536;45.488;12.238;2023-05-10T12:30:26;17.20;92.90
38788;DHT22;24536;45.488;12.238;2023-05-10T12:32:52;17.20;92.90
38788;DHT22;24536;45.488;12.238;2023-05-10T12:35:21;17.20;93.00
38788;DHT22;24536;45.488;12.238;2023-05-10T12:37:50;17.20;93.10
38788;DHT22;24536;45.488;12.238;2023-05-10T12:40:16;17.20;93.20
38788;DHT22;24536;45.488;12.238;2023-05-10T12:42:42;17.20;93.10
38788;DHT22;24536;45.488;12.238;2023-05-10T12:45:10;17.20;93.20
38788;DHT22;24536;45.488;12.238;2023-05-10T12:47:36;17.10;93.10
38788;DHT22;24536;45.488;12.238;2023-05-10T12:50:02;17.20;93.00
38788;DHT22;24536;45.488;12.238;2023-05-10T12:52:28;17.20;93.20
38788;DHT22;24536;45.488;12.238;2023-05-10T12:54:55;17.10;93.20
38788;DHT22;24536;45.488;12.238;2023-05-10T12:57:21;17.20;93.20
38788;DHT22;24536;45.488;12.238;2023-05-10T12:59:47;17.20;93.20
38788;DHT22;24536;45.488;12.238;2023-05-10T13:02:12;17.20;93.40
38788;DHT22;24536;45.488;12.238;2023-05-10T13:04:40;17.20;93.20
38788;DHT22;24536;45.488;12.238;2023-05-10T13:07:09;17.20;93.30
38788;DHT22;24536;45.488;12.238;2023-05-10T13:09:35;17.20;93.10
38788;DHT22;24536;45.488;12.238;2023-05-10T13:12:01;17.10;93.10
38788;DHT22;24536;45.488;12.238;2023-05-10T13:14:27;17.10;93.10
38788;DHT22;24536;45.488;12.238;2023-05-10T13:16:53;17.10;93.00
38788;DHT22;24536;45.488;12.238;2023-05-10T13:19:19;17.10;93.20
38788;DHT22;24536;45.488;12.238;2023-05-10T13:21:45;17.10;93.20
38788;DHT22;24536;45.488;12.238;2023-05-10T13:24:11;17.00;93.20
38788;DHT22;24536;45.488;12.238;2023-05-10T13:26:42;17.10;93.30
38788;DHT22;24536;45.488;12.238;2023-05-10T13:29:08;17.10;93.20
38788;DHT22;24536;45.488;12.238;2023-05-10T13:31:34;17.10;93.50
38788;DHT22;24536;45.488;12.238;2023-05-10T13:34:00;17.10;93.50
38788;DHT22;24536;45.488;12.238;2023-05-10T13:36:26;17.00;93.40
38788;DHT22;24536;45.488;12.238;2023-05-10T13:38:52;17.00;93.40
38788;DHT22;24536;45.488;12.238;2023-05-10T13:41:18;17.10;93.50
38788;DHT22;24536;45.488;12.238;2023-05-10T13:43:43;17.10;93.50
38788;DHT22;24536;45.488;12.238;2023-05-10T13:46:09;17.10;93.50
38788;DHT22;24536;45.488;12.238;2023-05-10T13:48:35;17.00;93.30
38788;DHT22;24536;45.488;12.238;2023-05-10T13:51:02;17.00;93.40
38788;DHT22;24536;45.488;12.238;2023-05-10T13:53:28;17.00;93.70
38788;DHT22;24536;45.488;12.238;2023-05-10T13:55:53;17.00;93.70
38788;DHT22;24536;45.488;12.238;2023-05-10T13:58:19;17.00;93.70
38788;DHT22;24536;45.488;12.238;2023-05-10T14:00:45;17.00;93.70
38788;DHT22;24536;45.488;12.238;2023-05-10T14:03:10;17.00;93.70
38788;DHT22;24536;45.488;12.238;2023-05-10T14:05:36;17.10;93.70
38788;DHT22;24536;45.488;12.238;2023-05-10T14:08:02;17.10;93.90
38788;DHT22;24536;45.488;12.238;2023-05-10T14:10:28;17.10;93.70
38788;DHT22;24536;45.488;12.238;2023-05-10T14:12:53;17.00;93.80
38788;DHT22;24536;45.488;12.238;2023-05-10T14:15:19;17.00;94.00
38788;DHT22;24536;45.488;12.238;2023-05-10T14:17:45;17.00;93.70
38788;DHT22;24536;45.488;12.238;2023-05-10T14:20:11;16.90;93.70
38788;DHT22;24536;45.488;12.238;2023-05-10T14:22:36;16.90;93.70
38788;DHT22;24536;45.488;12.238;2023-05-10T14:25:02;16.90;93.80
38788;DHT22;24536;45.488;12.238;2023-05-10T14:27:28;16.90;93.80
38788;DHT22;24536;45.488;12.238;2023-05-10T14:29:54;16.90;93.80
38788;DHT22;24536;45.488;12.238;2023-05-10T14:32:19;16.90;93.70
38788;DHT22;24536;45.488;12.238;2023-05-10T14:34:45;16.90;93.80
38788;DHT22;24536;45.488;12.238;2023-05-10T14:37:13;16.90;93.80
38788;DHT22;24536;45.488;12.238;2023-05-10T14:39:39;16.80;93.70
38788;DHT22;24536;45.488;12.238;2023-05-10T14:42:05;16.80;93.80
38788;DHT22;24536;45.488;12.238;2023-05-10T14:44:31;16.80;93.90
38788;DHT22;24536;45.488;12.238;2023-05-10T14:46:57;16.70;94.00
38788;DHT22;24536;45.488;12.238;2023-05-10T14:49:22;16.70;94.00
38788;DHT22;24536;45.488;12.238;2023-05-10T14:51:51;16.70;93.90
38788;DHT22;24536;45.488;12.238;2023-05-10T14:54:16;16.70;94.00
38788;DHT22;24536;45.488;12.238;2023-05-10T14:56:42;16.80;94.00
38788;DHT22;24536;45.488;12.238;2023-05-10T14:59:08;16.80;94.00
38788;DHT22;24536;45.488;12.238;2023-05-10T15:01:34;16.80;94.10
38788;DHT22;24536;45.488;12.238;2023-05-10T15:04:03;16.80;94.00
38788;DHT22;24536;45.488;12.238;2023-05-10T15:06:33;16.80;94.10
38788;DHT22;24536;45.488;12.238;2023-05-10T15:08:59;16.70;94.20
38788;DHT22;24536;45.488;12.238;2023-05-10T15:11:25;16.70;94.20
38788;DHT22;24536;45.488;12.238;2023-05-10T15:13:51;16.60;94.10
38788;DHT22;24536;45.488;12.238;2023-05-10T15:16:17;16.60;94.10
38788;DHT22;24536;45.488;12.238;2023-05-10T15:18:42;16.70;94.20
38788;DHT22;24536;45.488;12.238;2023-05-10T15:21:08;16.70;94.30
38788;DHT22;24536;45.488;12.238;2023-05-10T15:23:34;16.70;94.20
38788;DHT22;24536;45.488;12.238;2023-05-10T15:26:00;16.70;94.30
38788;DHT22;24536;45.488;12.238;2023-05-10T15:28:26;16.70;94.30
38788;DHT22;24536;45.488;12.238;2023-05-10T15:30:51;16.70;94.30
38788;DHT22;24536;45.488;12.238;2023-05-10T15:33:17;16.60;94.30
38788;DHT22;24536;45.488;12.238;2023-05-10T15:35:43;16.70;94.40
38788;DHT22;24536;45.488;12.238;2023-05-10T15:38:09;16.60;94.30
38788;DHT22;24536;45.488;12.238;2023-05-10T15:40:35;16.70;94.30
38788;DHT22;24536;45.488;12.238;2023-05-10T15:43:00;16.70;94.40
38788;DHT22;24536;45.488;12.238;2023-05-10T15:45:26;16.60;94.30
38788;DHT22;24536;45.488;12.238;2023-05-10T15:47:52;16.60;94.40